Terminal Aerodrome Forecast
Issued by NWS

Home | Current Version | Previous Version | Text Only | Print | Product List | Glossary On
Versions: 1 2 3 4 5 6 7 8 9 10 11 12 13 14 15 16 17 18 19 20 21 22 23 24 25 26 27 28 29 30 31 32 33 34 35 36 37 38 39 40 41 42 43 44 45 46 47 48 49 50
000
FTUS41 KCTP 101749
TAFBFD
TAF
KBFD 101749Z 1018/1118 VRB04KT P6SM BKN060
     FM110400 VRB02KT 4SM BR SCT060
     FM110800 00000KT 2SM BR VCFG FEW060
     FM111400 VRB04KT P6SM SKC=

USA.gov is the U.S. government's official web portal to all federal, state and local government web resources and services.